sensor_id;sensor_type;location;lat;lon;timestamp;P1;durP1;ratioP1;P2;durP2;ratioP2
49962;SDS011;36180;57.678;11.910;2022-07-10T00:00:45;4.28;;;1.20;;
49962;SDS011;36180;57.678;11.910;2022-07-10T00:03:13;1.63;;;0.60;;
49962;SDS011;36180;57.678;11.910;2022-07-10T00:05:40;6.50;;;1.25;;
49962;SDS011;36180;57.678;11.910;2022-07-10T00:08:07;3.00;;;0.85;;
49962;SDS011;36180;57.678;11.910;2022-07-10T00:10:34;6.40;;;1.30;;
49962;SDS011;36180;57.678;11.910;2022-07-10T00:13:02;4.68;;;1.40;;
49962;SDS011;36180;57.678;11.910;2022-07-10T00:15:29;2.60;;;0.63;;
49962;SDS011;36180;57.678;11.910;2022-07-10T00:17:57;3.22;;;1.05;;
49962;SDS011;36180;57.678;11.910;2022-07-10T00:20:26;4.78;;;0.93;;
49962;SDS011;36180;57.678;11.910;2022-07-10T00:22:53;2.30;;;0.80;;
49962;SDS011;36180;57.678;11.910;2022-07-10T00:25:20;2.78;;;0.82;;
49962;SDS011;36180;57.678;11.910;2022-07-10T00:27:47;2.85;;;0.90;;
49962;SDS011;36180;57.678;11.910;2022-07-10T00:30:16;6.30;;;1.00;;
49962;SDS011;36180;57.678;11.910;2022-07-10T00:32:43;2.42;;;0.70;;
49962;SDS011;36180;57.678;11.910;2022-07-10T00:35:10;2.78;;;0.90;;
49962;SDS011;36180;57.678;11.910;2022-07-10T00:37:39;1.58;;;0.63;;
49962;SDS011;36180;57.678;11.910;2022-07-10T00:40:06;2.83;;;1.20;;
49962;SDS011;36180;57.678;11.910;2022-07-10T00:42:34;4.63;;;1.00;;
49962;SDS011;36180;57.678;11.910;2022-07-10T00:45:01;1.63;;;0.63;;
49962;SDS011;36180;57.678;11.910;2022-07-10T00:47:28;3.67;;;0.68;;
49962;SDS011;36180;57.678;11.910;2022-07-10T00:49:55;4.43;;;0.93;;
49962;SDS011;36180;57.678;11.910;2022-07-10T00:52:22;1.40;;;0.90;;
49962;SDS011;36180;57.678;11.910;2022-07-10T00:54:51;3.92;;;0.80;;
49962;SDS011;36180;57.678;11.910;2022-07-10T00:57:18;2.03;;;0.70;;
49962;SDS011;36180;57.678;11.910;2022-07-10T00:59:45;1.23;;;0.60;;
49962;SDS011;36180;57.678;11.910;2022-07-10T01:02:13;5.65;;;0.90;;
49962;SDS011;36180;57.678;11.910;2022-07-10T01:04:41;1.00;;;0.55;;
49962;SDS011;36180;57.678;11.910;2022-07-10T01:07:08;2.22;;;0.68;;
49962;SDS011;36180;57.678;11.910;2022-07-10T01:09:35;3.28;;;0.80;;
49962;SDS011;36180;57.678;11.910;2022-07-10T01:12:04;1.52;;;0.88;;
49962;SDS011;36180;57.678;11.910;2022-07-10T01:14:31;3.65;;;0.60;;
49962;SDS011;36180;57.678;11.910;2022-07-10T01:17:00;1.48;;;0.98;;
49962;SDS011;36180;57.678;11.910;2022-07-10T01:19:28;1.35;;;0.65;;
49962;SDS011;36180;57.678;11.910;2022-07-10T01:21:56;1.80;;;0.65;;
49962;SDS011;36180;57.678;11.910;2022-07-10T01:24:23;2.85;;;0.88;;
49962;SDS011;36180;57.678;11.910;2022-07-10T01:26:50;2.50;;;0.70;;
49962;SDS011;36180;57.678;11.910;2022-07-10T01:29:17;1.58;;;0.52;;
49962;SDS011;36180;57.678;11.910;2022-07-10T01:31:44;0.90;;;0.63;;
49962;SDS011;36180;57.678;11.910;2022-07-10T01:34:11;2.10;;;0.52;;
49962;SDS011;36180;57.678;11.910;2022-07-10T01:36:38;6.28;;;0.80;;
49962;SDS011;36180;57.678;11.910;2022-07-10T01:39:07;1.38;;;0.60;;
49962;SDS011;36180;57.678;11.910;2022-07-10T01:41:34;2.92;;;0.77;;
49962;SDS011;36180;57.678;11.910;2022-07-10T01:44:01;0.82;;;0.50;;
49962;SDS011;36180;57.678;11.910;2022-07-10T01:46:28;3.28;;;0.50;;
49962;SDS011;36180;57.678;11.910;2022-07-10T01:48:55;0.88;;;0.60;;
49962;SDS011;36180;57.678;11.910;2022-07-10T01:51:23;1.73;;;0.57;;
49962;SDS011;36180;57.678;11.910;2022-07-10T01:53:50;3.47;;;0.90;;
49962;SDS011;36180;57.678;11.910;2022-07-10T01:56:18;2.78;;;0.63;;
49962;SDS011;36180;57.678;11.910;2022-07-10T01:58:45;2.25;;;0.47;;
49962;SDS011;36180;57.678;11.910;2022-07-10T02:01:12;4.97;;;0.38;;
49962;SDS011;36180;57.678;11.910;2022-07-10T02:03:39;2.72;;;0.40;;
49962;SDS011;36180;57.678;11.910;2022-07-10T02:06:24;2.45;;;0.77;;
49962;SDS011;36180;57.678;11.910;2022-07-10T02:08:51;2.90;;;0.55;;
49962;SDS011;36180;57.678;11.910;2022-07-10T02:11:19;1.05;;;0.60;;
49962;SDS011;36180;57.678;11.910;2022-07-10T02:13:46;1.77;;;0.77;;
49962;SDS011;36180;57.678;11.910;2022-07-10T02:16:13;3.22;;;0.52;;
49962;SDS011;36180;57.678;11.910;2022-07-10T02:18:40;1.00;;;0.38;;
49962;SDS011;36180;57.678;11.910;2022-07-10T02:21:07;0.98;;;0.35;;
49962;SDS011;36180;57.678;11.910;2022-07-10T02:23:34;0.70;;;0.40;;
49962;SDS011;36180;57.678;11.910;2022-07-10T02:26:01;5.10;;;0.55;;
49962;SDS011;36180;57.678;11.910;2022-07-10T02:28:30;1.40;;;0.50;;
49962;SDS011;36180;57.678;11.910;2022-07-10T02:30:57;1.50;;;0.45;;
49962;SDS011;36180;57.678;11.910;2022-07-10T02:33:24;1.80;;;0.50;;
49962;SDS011;36180;57.678;11.910;2022-07-10T02:35:52;2.22;;;0.63;;
49962;SDS011;36180;57.678;11.910;2022-07-10T02:38:19;1.10;;;0.43;;
49962;SDS011;36180;57.678;11.910;2022-07-10T02:40:46;4.10;;;0.45;;
49962;SDS011;36180;57.678;11.910;2022-07-10T02:43:14;1.90;;;0.50;;
49962;SDS011;36180;57.678;11.910;2022-07-10T02:45:42;0.93;;;0.40;;
49962;SDS011;36180;57.678;11.910;2022-07-10T02:48:09;1.20;;;0.30;;
49962;SDS011;36180;57.678;11.910;2022-07-10T02:50:36;3.13;;;0.40;;
49962;SDS011;36180;57.678;11.910;2022-07-10T02:53:03;2.90;;;0.40;;
49962;SDS011;36180;57.678;11.910;2022-07-10T02:55:31;1.45;;;0.75;;
49962;SDS011;36180;57.678;11.910;2022-07-10T02:57:59;1.75;;;0.68;;
49962;SDS011;36180;57.678;11.910;2022-07-10T03:00:26;1.30;;;0.50;;
49962;SDS011;36180;57.678;11.910;2022-07-10T03:02:54;0.68;;;0.40;;
49962;SDS011;36180;57.678;11.910;2022-07-10T03:05:22;2.63;;;0.50;;
49962;SDS011;36180;57.678;11.910;2022-07-10T03:07:49;0.98;;;0.50;;
49962;SDS011;36180;57.678;11.910;2022-07-10T03:10:16;0.40;;;0.40;;
49962;SDS011;36180;57.678;11.910;2022-07-10T03:12:43;1.88;;;0.45;;
49962;SDS011;36180;57.678;11.910;2022-07-10T03:15:10;5.90;;;0.55;;
49962;SDS011;36180;57.678;11.910;2022-07-10T03:17:37;0.70;;;0.30;;
49962;SDS011;36180;57.678;11.910;2022-07-10T03:20:06;0.98;;;0.40;;
49962;SDS011;36180;57.678;11.910;2022-07-10T03:22:34;1.27;;;0.50;;
49962;SDS011;36180;57.678;11.910;2022-07-10T03:25:02;0.57;;;0.40;;
49962;SDS011;36180;57.678;11.910;2022-07-10T03:27:29;0.55;;;0.40;;
49962;SDS011;36180;57.678;11.910;2022-07-10T03:29:56;5.50;;;0.50;;
49962;SDS011;36180;57.678;11.910;2022-07-10T03:32:23;1.55;;;0.50;;
49962;SDS011;36180;57.678;11.910;2022-07-10T03:34:50;1.92;;;0.40;;
49962;SDS011;36180;57.678;11.910;2022-07-10T03:37:18;1.83;;;0.63;;
49962;SDS011;36180;57.678;11.910;2022-07-10T03:39:45;1.50;;;0.28;;
49962;SDS011;36180;57.678;11.910;2022-07-10T03:42:12;0.30;;;0.30;;
49962;SDS011;36180;57.678;11.910;2022-07-10T03:44:39;1.92;;;0.45;;
49962;SDS011;36180;57.678;11.910;2022-07-10T03:47:06;1.08;;;0.80;;
49962;SDS011;36180;57.678;11.910;2022-07-10T03:49:33;1.60;;;0.70;;
49962;SDS011;36180;57.678;11.910;2022-07-10T03:52:01;1.20;;;0.40;;
49962;SDS011;36180;57.678;11.910;2022-07-10T03:54:30;1.00;;;0.40;;
49962;SDS011;36180;57.678;11.910;2022-07-10T03:56:57;0.75;;;0.43;;
49962;SDS011;36180;57.678;11.910;2022-07-10T03:59:41;0.60;;;0.40;;
49962;SDS011;36180;57.678;11.910;2022-07-10T04:02:08;1.17;;;0.30;;
49962;SDS011;36180;57.678;11.910;2022-07-10T04:04:35;0.93;;;0.40;;
49962;SDS011;36180;57.678;11.910;2022-07-10T04:07:03;0.32;;;0.30;;
49962;SDS011;36180;57.678;11.910;2022-07-10T04:09:32;0.50;;;0.50;;
49962;SDS011;36180;57.678;11.910;2022-07-10T04:11:59;0.50;;;0.50;;
49962;SDS011;36180;57.678;11.910;2022-07-10T04:14:26;0.88;;;0.43;;
49962;SDS011;36180;57.678;11.910;2022-07-10T04:16:53;0.30;;;0.30;;
49962;SDS011;36180;57.678;11.910;2022-07-10T04:19:20;0.40;;;0.30;;
49962;SDS011;36180;57.678;11.910;2022-07-10T04:21:47;2.17;;;0.40;;
49962;SDS011;36180;57.678;11.910;2022-07-10T04:24:14;1.10;;;0.40;;
49962;SDS011;36180;57.678;11.910;2022-07-10T04:26:43;1.38;;;0.30;;
49962;SDS011;36180;57.678;11.910;2022-07-10T04:29:10;0.52;;;0.30;;
49962;SDS011;36180;57.678;11.910;2022-07-10T04:31:37;1.95;;;0.40;;
49962;SDS011;36180;57.678;11.910;2022-07-10T04:34:05;0.30;;;0.30;;
49962;SDS011;36180;57.678;11.910;2022-07-10T04:36:32;0.30;;;0.30;;
49962;SDS011;36180;57.678;11.910;2022-07-10T04:38:59;0.40;;;0.30;;
49962;SDS011;36180;57.678;11.910;2022-07-10T04:41:26;0.55;;;0.55;;
49962;SDS011;36180;57.678;11.910;2022-07-10T04:43:54;0.40;;;0.40;;
49962;SDS011;36180;57.678;11.910;2022-07-10T04:46:21;0.30;;;0.30;;
49962;SDS011;36180;57.678;11.910;2022-07-10T04:48:48;1.40;;;0.30;;
49962;SDS011;36180;57.678;11.910;2022-07-10T04:51:16;1.92;;;0.32;;
49962;SDS011;36180;57.678;11.910;2022-07-10T04:53:43;0.30;;;0.20;;
49962;SDS011;36180;57.678;11.910;2022-07-10T04:56:10;0.80;;;0.40;;
49962;SDS011;36180;57.678;11.910;2022-07-10T04:58:37;0.20;;;0.20;;
49962;SDS011;36180;57.678;11.910;2022-07-10T05:01:05;0.38;;;0.28;;
49962;SDS011;36180;57.678;11.910;2022-07-10T05:03:32;0.40;;;0.40;;
49962;SDS011;36180;57.678;11.910;2022-07-10T05:05:59;0.30;;;0.30;;
49962;SDS011;36180;57.678;11.910;2022-07-10T05:08:26;0.22;;;0.22;;
49962;SDS011;36180;57.678;11.910;2022-07-10T05:10:53;0.73;;;0.30;;
49962;SDS011;36180;57.678;11.910;2022-07-10T05:13:20;0.40;;;0.40;;
49962;SDS011;36180;57.678;11.910;2022-07-10T05:15:48;0.22;;;0.22;;
49962;SDS011;36180;57.678;11.910;2022-07-10T05:18:16;0.43;;;0.30;;
49962;SDS011;36180;57.678;11.910;2022-07-10T05:20:43;1.52;;;0.30;;
49962;SDS011;36180;57.678;11.910;2022-07-10T05:23:13;0.30;;;0.30;;
49962;SDS011;36180;57.678;11.910;2022-07-10T05:25:40;0.43;;;0.20;;
49962;SDS011;36180;57.678;11.910;2022-07-10T05:28:07;0.30;;;0.30;;
49962;SDS011;36180;57.678;11.910;2022-07-10T05:30:34;0.20;;;0.20;;
49962;SDS011;36180;57.678;11.910;2022-07-10T05:33:01;0.28;;;0.28;;
49962;SDS011;36180;57.678;11.910;2022-07-10T05:35:30;1.45;;;0.30;;
49962;SDS011;36180;57.678;11.910;2022-07-10T05:37:57;0.20;;;0.20;;
49962;SDS011;36180;57.678;11.910;2022-07-10T05:40:24;0.68;;;0.28;;
49962;SDS011;36180;57.678;11.910;2022-07-10T05:42:51;0.28;;;0.28;;
49962;SDS011;36180;57.678;11.910;2022-07-10T05:45:18;0.68;;;0.30;;
49962;SDS011;36180;57.678;11.910;2022-07-10T05:47:45;0.52;;;0.40;;
49962;SDS011;36180;57.678;11.910;2022-07-10T05:50:12;0.30;;;0.30;;
49962;SDS011;36180;57.678;11.910;2022-07-10T05:52:40;0.40;;;0.30;;
49962;SDS011;36180;57.678;11.910;2022-07-10T05:55:08;0.20;;;0.20;;
49962;SDS011;36180;57.678;11.910;2022-07-10T05:57:35;0.20;;;0.20;;
49962;SDS011;36180;57.678;11.910;2022-07-10T06:00:03;0.20;;;0.20;;
49962;SDS011;36180;57.678;11.910;2022-07-10T06:02:37;0.30;;;0.30;;
49962;SDS011;36180;57.678;11.910;2022-07-10T06:05:04;0.20;;;0.20;;
49962;SDS011;36180;57.678;11.910;2022-07-10T06:07:32;0.20;;;0.20;;
49962;SDS011;36180;57.678;11.910;2022-07-10T06:10:00;0.20;;;0.20;;
49962;SDS011;36180;57.678;11.910;2022-07-10T06:12:28;0.32;;;0.22;;
49962;SDS011;36180;57.678;11.910;2022-07-10T06:14:55;0.40;;;0.30;;
49962;SDS011;36180;57.678;11.910;2022-07-10T06:17:22;0.30;;;0.30;;
49962;SDS011;36180;57.678;11.910;2022-07-10T06:19:49;0.65;;;0.20;;
49962;SDS011;36180;57.678;11.910;2022-07-10T06:22:16;0.30;;;0.30;;
49962;SDS011;36180;57.678;11.910;2022-07-10T06:24:59;0.20;;;0.20;;
49962;SDS011;36180;57.678;11.910;2022-07-10T06:27:28;0.10;;;0.10;;
49962;SDS011;36180;57.678;11.910;2022-07-10T06:29:55;0.38;;;0.30;;
49962;SDS011;36180;57.678;11.910;2022-07-10T06:32:23;0.50;;;0.20;;
49962;SDS011;36180;57.678;11.910;2022-07-10T06:34:50;0.40;;;0.20;;
49962;SDS011;36180;57.678;11.910;2022-07-10T06:37:17;0.38;;;0.20;;
49962;SDS011;36180;57.678;11.910;2022-07-10T06:39:45;0.22;;;0.20;;
49962;SDS011;36180;57.678;11.910;2022-07-10T06:42:14;0.57;;;0.20;;
49962;SDS011;36180;57.678;11.910;2022-07-10T06:44:46;0.30;;;0.20;;
49962;SDS011;36180;57.678;11.910;2022-07-10T06:47:13;0.40;;;0.17;;
49962;SDS011;36180;57.678;11.910;2022-07-10T06:49:59;0.63;;;0.22;;
49962;SDS011;36180;57.678;11.910;2022-07-10T06:52:26;0.20;;;0.20;;
49962;SDS011;36180;57.678;11.910;2022-07-10T06:54:53;0.63;;;0.20;;
49962;SDS011;36180;57.678;11.910;2022-07-10T06:57:22;0.47;;;0.20;;
49962;SDS011;36180;57.678;11.910;2022-07-10T06:59:49;0.85;;;0.20;;
49962;SDS011;36180;57.678;11.910;2022-07-10T07:02:16;0.22;;;0.22;;
49962;SDS011;36180;57.678;11.910;2022-07-10T07:04:43;0.20;;;0.20;;
49962;SDS011;36180;57.678;11.910;2022-07-10T07:07:11;0.20;;;0.20;;
49962;SDS011;36180;57.678;11.910;2022-07-10T07:09:38;0.20;;;0.20;;
49962;SDS011;36180;57.678;11.910;2022-07-10T07:12:06;0.10;;;0.10;;
49962;SDS011;36180;57.678;11.910;2022-07-10T07:14:35;0.20;;;0.20;;
49962;SDS011;36180;57.678;11.910;2022-07-10T07:17:04;2.00;;;0.20;;
49962;SDS011;36180;57.678;11.910;2022-07-10T07:19:34;0.30;;;0.20;;
49962;SDS011;36180;57.678;11.910;2022-07-10T07:22:15;0.28;;;0.25;;
49962;SDS011;36180;57.678;11.910;2022-07-10T07:24:59;0.30;;;0.30;;
49962;SDS011;36180;57.678;11.910;2022-07-10T07:27:27;0.20;;;0.20;;
49962;SDS011;36180;57.678;11.910;2022-07-10T07:29:55;0.20;;;0.20;;
49962;SDS011;36180;57.678;11.910;2022-07-10T07:32:22;0.32;;;0.20;;
49962;SDS011;36180;57.678;11.910;2022-07-10T07:34:49;0.20;;;0.20;;
49962;SDS011;36180;57.678;11.910;2022-07-10T07:37:16;1.50;;;0.20;;
49962;SDS011;36180;57.678;11.910;2022-07-10T07:39:43;0.20;;;0.20;;
49962;SDS011;36180;57.678;11.910;2022-07-10T07:42:10;1.90;;;0.47;;
49962;SDS011;36180;57.678;11.910;2022-07-10T07:44:37;1.55;;;0.22;;
49962;SDS011;36180;57.678;11.910;2022-07-10T07:47:05;0.20;;;0.20;;
49962;SDS011;36180;57.678;11.910;2022-07-10T07:49:32;1.65;;;0.20;;
49962;SDS011;36180;57.678;11.910;2022-07-10T07:51:59;0.30;;;0.20;;
49962;SDS011;36180;57.678;11.910;2022-07-10T07:54:26;0.20;;;0.20;;
49962;SDS011;36180;57.678;11.910;2022-07-10T07:56:53;0.20;;;0.20;;
49962;SDS011;36180;57.678;11.910;2022-07-10T07:59:20;0.20;;;0.20;;
49962;SDS011;36180;57.678;11.910;2022-07-10T08:01:47;0.13;;;0.13;;
49962;SDS011;36180;57.678;11.910;2022-07-10T08:04:16;0.20;;;0.20;;
49962;SDS011;36180;57.678;11.910;2022-07-10T08:06:43;0.10;;;0.10;;
49962;SDS011;36180;57.678;11.910;2022-07-10T08:09:10;0.10;;;0.10;;
49962;SDS011;36180;57.678;11.910;2022-07-10T08:11:37;0.38;;;0.25;;
49962;SDS011;36180;57.678;11.910;2022-07-10T08:14:04;0.20;;;0.20;;
49962;SDS011;36180;57.678;11.910;2022-07-10T08:16:31;0.20;;;0.20;;
49962;SDS011;36180;57.678;11.910;2022-07-10T08:18:58;0.25;;;0.10;;
49962;SDS011;36180;57.678;11.910;2022-07-10T08:21:26;0.28;;;0.20;;
49962;SDS011;36180;57.678;11.910;2022-07-10T08:23:53;0.20;;;0.20;;
49962;SDS011;36180;57.678;11.910;2022-07-10T08:26:20;0.10;;;0.10;;
49962;SDS011;36180;57.678;11.910;2022-07-10T08:28:47;0.32;;;0.10;;
49962;SDS011;36180;57.678;11.910;2022-07-10T08:31:14;0.10;;;0.10;;
49962;SDS011;36180;57.678;11.910;2022-07-10T08:33:41;0.10;;;0.10;;
49962;SDS011;36180;57.678;11.910;2022-07-10T08:36:08;0.38;;;0.17;;
49962;SDS011;36180;57.678;11.910;2022-07-10T08:38:37;0.20;;;0.20;;
49962;SDS011;36180;57.678;11.910;2022-07-10T08:41:05;0.10;;;0.10;;
49962;SDS011;36180;57.678;11.910;2022-07-10T08:43:32;0.57;;;0.10;;
49962;SDS011;36180;57.678;11.910;2022-07-10T08:45:59;0.93;;;0.30;;
49962;SDS011;36180;57.678;11.910;2022-07-10T08:48:26;0.10;;;0.10;;
49962;SDS011;36180;57.678;11.910;2022-07-10T08:50:54;0.10;;;0.10;;
49962;SDS011;36180;57.678;11.910;2022-07-10T08:53:24;0.52;;;0.20;;
49962;SDS011;36180;57.678;11.910;2022-07-10T08:55:57;0.10;;;0.10;;
49962;SDS011;36180;57.678;11.910;2022-07-10T08:58:25;0.43;;;0.20;;
49962;SDS011;36180;57.678;11.910;2022-07-10T09:00:53;0.15;;;0.10;;
49962;SDS011;36180;57.678;11.910;2022-07-10T09:03:20;1.65;;;0.20;;
49962;SDS011;36180;57.678;11.910;2022-07-10T09:05:47;0.10;;;0.10;;
49962;SDS011;36180;57.678;11.910;2022-07-10T09:08:22;0.20;;;0.20;;
49962;SDS011;36180;57.678;11.910;2022-07-10T09:10:52;0.10;;;0.10;;
49962;SDS011;36180;57.678;11.910;2022-07-10T09:13:20;0.13;;;0.13;;
49962;SDS011;36180;57.678;11.910;2022-07-10T09:15:49;0.38;;;0.38;;
49962;SDS011;36180;57.678;11.910;2022-07-10T09:18:18;0.80;;;0.20;;
49962;SDS011;36180;57.678;11.910;2022-07-10T09:20:46;0.57;;;0.20;;
49962;SDS011;36180;57.678;11.910;2022-07-10T09:23:17;0.30;;;0.22;;
49962;SDS011;36180;57.678;11.910;2022-07-10T09:25:45;0.20;;;0.20;;
49962;SDS011;36180;57.678;11.910;2022-07-10T09:28:14;0.20;;;0.20;;
49962;SDS011;36180;57.678;11.910;2022-07-10T09:30:46;0.10;;;0.10;;
49962;SDS011;36180;57.678;11.910;2022-07-10T09:33:14;1.52;;;0.20;;
49962;SDS011;36180;57.678;11.910;2022-07-10T09:35:59;0.13;;;0.13;;
49962;SDS011;36180;57.678;11.910;2022-07-10T09:38:52;0.10;;;0.10;;
49962;SDS011;36180;57.678;11.910;2022-07-10T09:41:24;0.28;;;0.20;;
49962;SDS011;36180;57.678;11.910;2022-07-10T09:43:53;0.43;;;0.20;;
49962;SDS011;36180;57.678;11.910;2022-07-10T09:46:23;0.55;;;0.13;;
49962;SDS011;36180;57.678;11.910;2022-07-10T09:49:07;0.60;;;0.28;;
49962;SDS011;36180;57.678;11.910;2022-07-10T09:51:35;1.13;;;0.47;;
49962;SDS011;36180;57.678;11.910;2022-07-10T09:54:04;0.95;;;0.20;;
49962;SDS011;36180;57.678;11.910;2022-07-10T09:56:41;3.20;;;0.50;;
49962;SDS011;36180;57.678;11.910;2022-07-10T09:59:12;0.20;;;0.20;;
49962;SDS011;36180;57.678;11.910;2022-07-10T10:01:44;0.20;;;0.13;;
49962;SDS011;36180;57.678;11.910;2022-07-10T10:04:12;0.90;;;0.20;;
49962;SDS011;36180;57.678;11.910;2022-07-10T10:06:40;0.10;;;0.10;;
49962;SDS011;36180;57.678;11.910;2022-07-10T10:09:07;2.70;;;0.45;;
49962;SDS011;36180;57.678;11.910;2022-07-10T10:11:37;0.30;;;0.10;;
49962;SDS011;36180;57.678;11.910;2022-07-10T10:14:04;0.55;;;0.20;;
49962;SDS011;36180;57.678;11.910;2022-07-10T10:16:33;0.55;;;0.20;;
49962;SDS011;36180;57.678;11.910;2022-07-10T10:19:02;0.32;;;0.25;;
49962;SDS011;36180;57.678;11.910;2022-07-10T10:21:48;0.10;;;0.10;;
49962;SDS011;36180;57.678;11.910;2022-07-10T10:24:15;0.65;;;0.65;;
49962;SDS011;36180;57.678;11.910;2022-07-10T10:26:42;1.27;;;0.57;;
49962;SDS011;36180;57.678;11.910;2022-07-10T10:29:10;3.42;;;0.20;;
49962;SDS011;36180;57.678;11.910;2022-07-10T10:31:37;0.93;;;0.22;;
49962;SDS011;36180;57.678;11.910;2022-07-10T10:34:06;0.65;;;0.30;;
49962;SDS011;36180;57.678;11.910;2022-07-10T10:36:43;0.98;;;0.32;;
49962;SDS011;36180;57.678;11.910;2022-07-10T10:39:11;0.47;;;0.32;;
49962;SDS011;36180;57.678;11.910;2022-07-10T10:41:39;3.00;;;0.40;;
49962;SDS011;36180;57.678;11.910;2022-07-10T10:47:02;0.70;;;0.30;;
49962;SDS011;36180;57.678;11.910;2022-07-10T10:49:49;0.40;;;0.30;;
49962;SDS011;36180;57.678;11.910;2022-07-10T10:52:18;1.50;;;0.40;;
49962;SDS011;36180;57.678;11.910;2022-07-10T10:57:42;2.78;;;0.50;;
49962;SDS011;36180;57.678;11.910;2022-07-10T11:00:32;0.95;;;0.30;;
49962;SDS011;36180;57.678;11.910;2022-07-10T11:03:13;1.02;;;0.28;;
49962;SDS011;36180;57.678;11.910;2022-07-10T11:05:46;0.73;;;0.30;;
49962;SDS011;36180;57.678;11.910;2022-07-10T11:08:34;2.28;;;0.50;;
49962;SDS011;36180;57.678;11.910;2022-07-10T11:14:03;2.55;;;0.60;;
49962;SDS011;36180;57.678;11.910;2022-07-10T11:16:30;1.65;;;0.35;;
49962;SDS011;36180;57.678;11.910;2022-07-10T11:18:58;2.10;;;0.60;;
49962;SDS011;36180;57.678;11.910;2022-07-10T11:21:28;1.55;;;0.30;;
49962;SDS011;36180;57.678;11.910;2022-07-10T11:23:56;1.00;;;0.30;;
49962;SDS011;36180;57.678;11.910;2022-07-10T11:26:26;1.90;;;0.30;;
49962;SDS011;36180;57.678;11.910;2022-07-10T11:29:01;1.85;;;0.28;;
49962;SDS011;36180;57.678;11.910;2022-07-10T11:31:30;1.23;;;0.30;;
49962;SDS011;36180;57.678;11.910;2022-07-10T11:34:02;0.40;;;0.20;;
49962;SDS011;36180;57.678;11.910;2022-07-10T11:36:31;3.38;;;0.60;;
49962;SDS011;36180;57.678;11.910;2022-07-10T11:38:59;1.67;;;0.40;;
49962;SDS011;36180;57.678;11.910;2022-07-10T11:41:28;1.38;;;0.30;;
49962;SDS011;36180;57.678;11.910;2022-07-10T11:43:56;1.05;;;0.28;;
49962;SDS011;36180;57.678;11.910;2022-07-10T11:46:24;0.90;;;0.22;;
49962;SDS011;36180;57.678;11.910;2022-07-10T11:48:53;2.72;;;0.57;;
49962;SDS011;36180;57.678;11.910;2022-07-10T11:51:22;2.20;;;0.50;;
49962;SDS011;36180;57.678;11.910;2022-07-10T11:53:56;0.57;;;0.30;;
49962;SDS011;36180;57.678;11.910;2022-07-10T11:56:28;2.28;;;0.47;;
49962;SDS011;36180;57.678;11.910;2022-07-10T11:58:57;1.88;;;0.45;;
49962;SDS011;36180;57.678;11.910;2022-07-10T12:01:26;1.15;;;0.30;;
49962;SDS011;36180;57.678;11.910;2022-07-10T12:03:57;1.20;;;0.32;;
49962;SDS011;36180;57.678;11.910;2022-07-10T12:06:26;2.50;;;0.32;;
49962;SDS011;36180;57.678;11.910;2022-07-10T12:08:54;1.50;;;0.30;;
49962;SDS011;36180;57.678;11.910;2022-07-10T12:11:22;0.50;;;0.20;;
49962;SDS011;36180;57.678;11.910;2022-07-10T12:13:50;0.28;;;0.28;;
49962;SDS011;36180;57.678;11.910;2022-07-10T12:16:19;1.27;;;0.30;;
49962;SDS011;36180;57.678;11.910;2022-07-10T12:18:46;4.68;;;0.63;;
49962;SDS011;36180;57.678;11.910;2022-07-10T12:21:14;2.13;;;0.40;;
49962;SDS011;36180;57.678;11.910;2022-07-10T12:23:44;2.25;;;0.20;;
49962;SDS011;36180;57.678;11.910;2022-07-10T12:26:15;1.80;;;0.20;;
49962;SDS011;36180;57.678;11.910;2022-07-10T12:28:49;1.48;;;0.30;;
49962;SDS011;36180;57.678;11.910;2022-07-10T12:31:21;2.45;;;0.20;;
49962;SDS011;36180;57.678;11.910;2022-07-10T12:33:52;0.70;;;0.40;;
49962;SDS011;36180;57.678;11.910;2022-07-10T12:36:23;2.88;;;0.85;;
49962;SDS011;36180;57.678;11.910;2022-07-10T12:38:55;2.10;;;0.30;;
49962;SDS011;36180;57.678;11.910;2022-07-10T12:41:25;0.95;;;0.30;;
49962;SDS011;36180;57.678;11.910;2022-07-10T12:43:52;2.35;;;0.30;;
49962;SDS011;36180;57.678;11.910;2022-07-10T12:46:20;2.35;;;0.20;;
49962;SDS011;36180;57.678;11.910;2022-07-10T12:49:01;0.52;;;0.30;;
49962;SDS011;36180;57.678;11.910;2022-07-10T12:51:29;0.70;;;0.35;;
49962;SDS011;36180;57.678;11.910;2022-07-10T12:53:57;0.47;;;0.20;;
49962;SDS011;36180;57.678;11.910;2022-07-10T12:56:32;1.17;;;0.30;;
49962;SDS011;36180;57.678;11.910;2022-07-10T12:59:01;2.65;;;0.30;;
49962;SDS011;36180;57.678;11.910;2022-07-10T13:01:29;1.70;;;0.35;;
49962;SDS011;36180;57.678;11.910;2022-07-10T13:04:06;0.77;;;0.25;;
49962;SDS011;36180;57.678;11.910;2022-07-10T13:06:35;3.28;;;0.40;;
49962;SDS011;36180;57.678;11.910;2022-07-10T13:09:03;1.70;;;0.50;;
49962;SDS011;36180;57.678;11.910;2022-07-10T13:11:37;4.35;;;0.35;;
49962;SDS011;36180;57.678;11.910;2022-07-10T13:14:04;0.25;;;0.20;;
49962;SDS011;36180;57.678;11.910;2022-07-10T13:16:31;1.60;;;0.30;;
49962;SDS011;36180;57.678;11.910;2022-07-10T13:18:58;1.48;;;0.32;;
49962;SDS011;36180;57.678;11.910;2022-07-10T13:21:25;1.20;;;0.20;;
49962;SDS011;36180;57.678;11.910;2022-07-10T13:23:52;1.65;;;0.28;;
49962;SDS011;36180;57.678;11.910;2022-07-10T13:26:20;2.70;;;0.52;;
49962;SDS011;36180;57.678;11.910;2022-07-10T13:28:48;0.88;;;0.30;;
49962;SDS011;36180;57.678;11.910;2022-07-10T13:31:15;0.85;;;0.30;;
49962;SDS011;36180;57.678;11.910;2022-07-10T13:33:42;1.08;;;0.40;;
49962;SDS011;36180;57.678;11.910;2022-07-10T13:36:09;1.60;;;0.30;;
49962;SDS011;36180;57.678;11.910;2022-07-10T13:38:36;1.00;;;0.30;;
49962;SDS011;36180;57.678;11.910;2022-07-10T13:41:04;1.05;;;0.20;;
49962;SDS011;36180;57.678;11.910;2022-07-10T13:43:31;1.15;;;0.30;;
49962;SDS011;36180;57.678;11.910;2022-07-10T13:45:59;2.03;;;0.35;;
49962;SDS011;36180;57.678;11.910;2022-07-10T13:48:27;0.73;;;0.38;;
49962;SDS011;36180;57.678;11.910;2022-07-10T13:50:56;1.67;;;0.50;;
49962;SDS011;36180;57.678;11.910;2022-07-10T13:53:23;3.53;;;0.52;;
49962;SDS011;36180;57.678;11.910;2022-07-10T13:55:50;0.35;;;0.30;;
49962;SDS011;36180;57.678;11.910;2022-07-10T13:58:17;1.52;;;0.28;;
49962;SDS011;36180;57.678;11.910;2022-07-10T14:00:45;3.42;;;0.55;;
49962;SDS011;36180;57.678;11.910;2022-07-10T14:03:14;1.08;;;0.40;;
49962;SDS011;36180;57.678;11.910;2022-07-10T14:05:41;0.85;;;0.22;;
49962;SDS011;36180;57.678;11.910;2022-07-10T14:08:08;2.95;;;0.45;;
49962;SDS011;36180;57.678;11.910;2022-07-10T14:10:35;2.60;;;0.30;;
49962;SDS011;36180;57.678;11.910;2022-07-10T14:13:02;0.50;;;0.40;;
49962;SDS011;36180;57.678;11.910;2022-07-10T14:15:30;0.68;;;0.20;;
49962;SDS011;36180;57.678;11.910;2022-07-10T14:17:57;1.65;;;0.60;;
49962;SDS011;36180;57.678;11.910;2022-07-10T14:20:26;3.85;;;0.40;;
49962;SDS011;36180;57.678;11.910;2022-07-10T14:22:53;1.75;;;0.43;;
49962;SDS011;36180;57.678;11.910;2022-07-10T14:25:20;1.45;;;0.40;;
49962;SDS011;36180;57.678;11.910;2022-07-10T14:27:49;2.50;;;0.68;;
49962;SDS011;36180;57.678;11.910;2022-07-10T14:30:16;1.85;;;0.40;;
49962;SDS011;36180;57.678;11.910;2022-07-10T14:32:43;1.02;;;0.30;;
49962;SDS011;36180;57.678;11.910;2022-07-10T14:35:10;1.60;;;0.40;;
49962;SDS011;36180;57.678;11.910;2022-07-10T14:37:39;4.97;;;0.75;;
49962;SDS011;36180;57.678;11.910;2022-07-10T14:40:06;3.80;;;0.40;;
49962;SDS011;36180;57.678;11.910;2022-07-10T14:42:34;2.60;;;0.50;;
49962;SDS011;36180;57.678;11.910;2022-07-10T14:45:01;1.92;;;0.40;;
49962;SDS011;36180;57.678;11.910;2022-07-10T14:47:28;3.83;;;0.60;;
49962;SDS011;36180;57.678;11.910;2022-07-10T14:49:55;1.60;;;0.35;;